sensor_id;sensor_type;location;lat;lon;timestamp;pressure;altitude;pressure_sealevel;temperature;humidity
59951;BME280;45812;53.540;9.774;2023-03-21T00:00:59;101558.28;;;7.59;100.00
59951;BME280;45812;53.540;9.774;2023-03-21T00:03:27;101553.09;;;7.57;100.00
59951;BME280;45812;53.540;9.774;2023-03-21T00:05:52;101555.84;;;7.67;100.00
59951;BME280;45812;53.540;9.774;2023-03-21T00:08:19;101562.59;;;7.71;100.00
59951;BME280;45812;53.540;9.774;2023-03-21T00:10:46;101555.09;;;7.76;100.00
59951;BME280;45812;53.540;9.774;2023-03-21T00:13:12;101562.31;;;7.74;100.00
59951;BME280;45812;53.540;9.774;2023-03-21T00:15:39;101559.53;;;7.76;100.00
59951;BME280;45812;53.540;9.774;2023-03-21T00:18:15;101557.09;;;7.63;100.00
59951;BME280;45812;53.540;9.774;2023-03-21T00:20:40;101549.47;;;7.58;100.00
59951;BME280;45812;53.540;9.774;2023-03-21T00:23:05;101551.72;;;7.74;100.00
59951;BME280;45812;53.540;9.774;2023-03-21T00:25:31;101545.47;;;7.75;100.00
59951;BME280;45812;53.540;9.774;2023-03-21T00:27:57;101547.38;;;7.84;100.00
59951;BME280;45812;53.540;9.774;2023-03-21T00:30:22;101543.63;;;7.87;100.00
59951;BME280;45812;53.540;9.774;2023-03-21T00:32:48;101543.88;;;7.84;100.00
59951;BME280;45812;53.540;9.774;2023-03-21T00:35:13;101546.03;;;7.79;100.00
59951;BME280;45812;53.540;9.774;2023-03-21T00:37:38;101542.09;;;7.73;100.00
59951;BME280;45812;53.540;9.774;2023-03-21T00:40:04;101535.50;;;7.68;100.00
59951;BME280;45812;53.540;9.774;2023-03-21T00:42:36;101536.66;;;7.75;100.00
59951;BME280;45812;53.540;9.774;2023-03-21T00:45:03;101542.81;;;7.75;100.00
59951;BME280;45812;53.540;9.774;2023-03-21T00:47:29;101535.91;;;7.84;100.00
59951;BME280;45812;53.540;9.774;2023-03-21T00:49:54;101526.16;;;7.84;100.00
59951;BME280;45812;53.540;9.774;2023-03-21T00:52:20;101531.94;;;7.78;100.00
59951;BME280;45812;53.540;9.774;2023-03-21T00:54:45;101532.56;;;7.82;100.00
59951;BME280;45812;53.540;9.774;2023-03-21T00:57:10;101530.50;;;7.85;100.00
59951;BME280;45812;53.540;9.774;2023-03-21T00:59:35;101522.81;;;7.82;100.00
59951;BME280;45812;53.540;9.774;2023-03-21T01:02:01;101524.72;;;7.80;100.00
59951;BME280;45812;53.540;9.774;2023-03-21T01:04:26;101523.38;;;7.86;100.00
59951;BME280;45812;53.540;9.774;2023-03-21T01:06:53;101528.28;;;7.90;100.00
59951;BME280;45812;53.540;9.774;2023-03-21T01:09:21;101522.81;;;7.82;100.00
59951;BME280;45812;53.540;9.774;2023-03-21T01:11:47;101518.22;;;7.84;100.00
59951;BME280;45812;53.540;9.774;2023-03-21T01:14:15;101519.38;;;7.92;100.00
59951;BME280;45812;53.540;9.774;2023-03-21T01:16:41;101518.84;;;7.98;100.00
59951;BME280;45812;53.540;9.774;2023-03-21T01:19:08;101515.03;;;7.90;100.00
59951;BME280;45812;53.540;9.774;2023-03-21T01:21:35;101520.47;;;7.89;100.00
59951;BME280;45812;53.540;9.774;2023-03-21T01:24:00;101516.97;;;7.88;100.00
59951;BME280;45812;53.540;9.774;2023-03-21T01:26:26;101513.75;;;7.85;100.00
59951;BME280;45812;53.540;9.774;2023-03-21T01:28:52;101514.78;;;7.94;100.00
59951;BME280;45812;53.540;9.774;2023-03-21T01:31:17;101516.47;;;7.95;100.00
59951;BME280;45812;53.540;9.774;2023-03-21T01:33:43;101510.84;;;7.88;100.00
59951;BME280;45812;53.540;9.774;2023-03-21T01:36:34;101506.44;;;7.98;100.00
59951;BME280;45812;53.540;9.774;2023-03-21T01:38:59;101504.53;;;8.00;100.00
59951;BME280;45812;53.540;9.774;2023-03-21T01:41:43;101507.28;;;7.99;100.00
59951;BME280;45812;53.540;9.774;2023-03-21T01:44:14;101499.44;;;7.97;100.00
59951;BME280;45812;53.540;9.774;2023-03-21T01:46:42;101499.09;;;8.02;100.00
59951;BME280;45812;53.540;9.774;2023-03-21T01:49:13;101504.84;;;8.07;100.00
59951;BME280;45812;53.540;9.774;2023-03-21T01:51:58;101494.81;;;8.10;100.00
59951;BME280;45812;53.540;9.774;2023-03-21T01:54:28;101493.53;;;8.05;100.00
59951;BME280;45812;53.540;9.774;2023-03-21T01:56:57;101493.19;;;7.98;100.00
59951;BME280;45812;53.540;9.774;2023-03-21T01:59:28;101498.81;;;8.05;100.00
59951;BME280;45812;53.540;9.774;2023-03-21T02:01:58;101500.06;;;8.01;100.00
59951;BME280;45812;53.540;9.774;2023-03-21T02:04:25;101494.50;;;8.04;100.00
59951;BME280;45812;53.540;9.774;2023-03-21T02:07:20;101489.25;;;7.93;100.00
59951;BME280;45812;53.540;9.774;2023-03-21T02:09:50;101498.38;;;8.00;100.00
59951;BME280;45812;53.540;9.774;2023-03-21T02:12:16;101483.03;;;8.03;100.00
59951;BME280;45812;53.540;9.774;2023-03-21T02:14:44;101482.66;;;8.08;100.00
59951;BME280;45812;53.540;9.774;2023-03-21T02:17:27;101486.72;;;8.12;100.00
59951;BME280;45812;53.540;9.774;2023-03-21T02:23:13;101484.19;;;8.10;100.00
59951;BME280;45812;53.540;9.774;2023-03-21T02:28:39;101471.78;;;8.11;100.00
59951;BME280;45812;53.540;9.774;2023-03-21T02:31:16;101472.94;;;8.18;100.00
59951;BME280;45812;53.540;9.774;2023-03-21T02:37:01;101465.84;;;8.18;100.00
59951;BME280;45812;53.540;9.774;2023-03-21T02:42:02;101474.25;;;8.03;100.00
59951;BME280;45812;53.540;9.774;2023-03-21T02:44:40;101472.75;;;8.10;100.00
59951;BME280;45812;53.540;9.774;2023-03-21T02:47:28;101476.25;;;8.10;100.00
59951;BME280;45812;53.540;9.774;2023-03-21T02:49:57;101466.34;;;8.12;100.00
59951;BME280;45812;53.540;9.774;2023-03-21T02:52:29;101462.31;;;8.18;100.00
59951;BME280;45812;53.540;9.774;2023-03-21T02:54:56;101469.84;;;8.13;100.00
59951;BME280;45812;53.540;9.774;2023-03-21T02:57:22;101458.25;;;8.14;100.00
59951;BME280;45812;53.540;9.774;2023-03-21T02:59:49;101464.41;;;8.14;100.00
59951;BME280;45812;53.540;9.774;2023-03-21T03:02:16;101460.72;;;8.06;100.00
59951;BME280;45812;53.540;9.774;2023-03-21T03:04:44;101456.41;;;8.05;100.00
59951;BME280;45812;53.540;9.774;2023-03-21T03:07:24;101455.59;;;8.14;100.00
59951;BME280;45812;53.540;9.774;2023-03-21T03:13:02;101452.69;;;8.17;100.00
59951;BME280;45812;53.540;9.774;2023-03-21T03:18:20;101443.06;;;8.16;100.00
59951;BME280;45812;53.540;9.774;2023-03-21T03:21:11;101449.56;;;8.02;100.00
59951;BME280;45812;53.540;9.774;2023-03-21T03:23:45;101435.06;;;8.06;100.00
59951;BME280;45812;53.540;9.774;2023-03-21T03:26:16;101434.25;;;8.15;100.00
59951;BME280;45812;53.540;9.774;2023-03-21T03:28:52;101438.22;;;8.21;100.00
59951;BME280;45812;53.540;9.774;2023-03-21T03:31:27;101434.84;;;8.19;100.00
59951;BME280;45812;53.540;9.774;2023-03-21T03:33:57;101438.09;;;8.23;100.00
59951;BME280;45812;53.540;9.774;2023-03-21T03:36:29;101441.56;;;8.23;100.00
59951;BME280;45812;53.540;9.774;2023-03-21T03:39:00;101434.31;;;8.25;100.00
59951;BME280;45812;53.540;9.774;2023-03-21T03:41:28;101440.47;;;8.26;100.00
59951;BME280;45812;53.540;9.774;2023-03-21T03:43:57;101439.19;;;8.20;100.00
59951;BME280;45812;53.540;9.774;2023-03-21T03:46:29;101442.22;;;8.15;100.00
59951;BME280;45812;53.540;9.774;2023-03-21T03:49:07;101433.16;;;8.18;100.00
59951;BME280;45812;53.540;9.774;2023-03-21T03:51:43;101438.22;;;8.21;100.00
59951;BME280;45812;53.540;9.774;2023-03-21T03:54:18;101432.84;;;8.11;100.00
59951;BME280;45812;53.540;9.774;2023-03-21T03:56:45;101435.81;;;8.18;100.00
59951;BME280;45812;53.540;9.774;2023-03-21T03:59:11;101432.31;;;8.17;100.00
59951;BME280;45812;53.540;9.774;2023-03-21T04:01:36;101430.75;;;8.15;100.00
59951;BME280;45812;53.540;9.774;2023-03-21T04:04:01;101427.84;;;8.18;100.00
59951;BME280;45812;53.540;9.774;2023-03-21T04:06:26;101427.28;;;8.14;100.00
59951;BME280;45812;53.540;9.774;2023-03-21T04:08:53;101437.09;;;8.24;100.00
59951;BME280;45812;53.540;9.774;2023-03-21T04:11:20;101442.06;;;8.17;100.00
59951;BME280;45812;53.540;9.774;2023-03-21T04:13:45;101429.56;;;8.19;100.00
59951;BME280;45812;53.540;9.774;2023-03-21T04:16:11;101428.03;;;8.26;100.00
59951;BME280;45812;53.540;9.774;2023-03-21T04:18:37;101427.19;;;8.26;100.00
59951;BME280;45812;53.540;9.774;2023-03-21T04:21:09;101431.84;;;8.33;100.00
59951;BME280;45812;53.540;9.774;2023-03-21T04:23:35;101426.78;;;8.30;100.00
59951;BME280;45812;53.540;9.774;2023-03-21T04:26:01;101427.78;;;8.29;100.00
59951;BME280;45812;53.540;9.774;2023-03-21T04:28:26;101423.41;;;8.18;100.00
59951;BME280;45812;53.540;9.774;2023-03-21T04:30:51;101428.13;;;8.15;100.00
59951;BME280;45812;53.540;9.774;2023-03-21T04:33:17;101429.59;;;8.29;100.00
59951;BME280;45812;53.540;9.774;2023-03-21T04:35:42;101423.03;;;8.33;100.00
59951;BME280;45812;53.540;9.774;2023-03-21T04:38:09;101418.72;;;8.32;100.00
59951;BME280;45812;53.540;9.774;2023-03-21T04:40:35;101420.97;;;8.36;100.00
59951;BME280;45812;53.540;9.774;2023-03-21T04:43:00;101414.47;;;8.40;100.00
59951;BME280;45812;53.540;9.774;2023-03-21T04:45:25;101417.88;;;8.31;100.00
59951;BME280;45812;53.540;9.774;2023-03-21T04:47:51;101416.91;;;8.32;100.00
59951;BME280;45812;53.540;9.774;2023-03-21T04:50:16;101419.63;;;8.42;100.00
59951;BME280;45812;53.540;9.774;2023-03-21T04:52:41;101420.88;;;8.38;100.00
59951;BME280;45812;53.540;9.774;2023-03-21T04:55:07;101414.25;;;8.32;100.00
59951;BME280;45812;53.540;9.774;2023-03-21T04:57:34;101415.44;;;8.39;100.00
59951;BME280;45812;53.540;9.774;2023-03-21T05:00:00;101414.59;;;8.39;100.00
59951;BME280;45812;53.540;9.774;2023-03-21T05:02:25;101416.41;;;8.38;100.00
59951;BME280;45812;53.540;9.774;2023-03-21T05:04:51;101419.78;;;8.40;100.00
59951;BME280;45812;53.540;9.774;2023-03-21T05:07:16;101421.03;;;8.46;100.00
59951;BME280;45812;53.540;9.774;2023-03-21T05:09:41;101417.97;;;8.41;100.00
59951;BME280;45812;53.540;9.774;2023-03-21T05:12:06;101415.47;;;8.28;100.00
59951;BME280;45812;53.540;9.774;2023-03-21T05:14:32;101406.19;;;8.34;100.00
59951;BME280;45812;53.540;9.774;2023-03-21T05:16:58;101411.59;;;8.32;100.00
59951;BME280;45812;53.540;9.774;2023-03-21T05:19:27;101403.28;;;8.37;100.00
59951;BME280;45812;53.540;9.774;2023-03-21T05:22:01;101408.31;;;8.40;100.00
59951;BME280;45812;53.540;9.774;2023-03-21T05:24:29;101407.22;;;8.42;100.00
59951;BME280;45812;53.540;9.774;2023-03-21T05:26:55;101410.44;;;8.46;100.00
59951;BME280;45812;53.540;9.774;2023-03-21T05:29:26;101403.16;;;8.48;100.00
59951;BME280;45812;53.540;9.774;2023-03-21T05:31:51;101403.19;;;8.27;100.00
59951;BME280;45812;53.540;9.774;2023-03-21T05:34:16;101408.00;;;8.12;100.00
59951;BME280;45812;53.540;9.774;2023-03-21T05:36:42;101403.88;;;8.19;100.00
59951;BME280;45812;53.540;9.774;2023-03-21T05:39:07;101398.56;;;8.19;100.00
59951;BME280;45812;53.540;9.774;2023-03-21T05:41:32;101400.28;;;8.30;100.00
59951;BME280;45812;53.540;9.774;2023-03-21T05:43:58;101404.75;;;8.30;100.00
59951;BME280;45812;53.540;9.774;2023-03-21T05:46:24;101405.31;;;8.33;100.00
59951;BME280;45812;53.540;9.774;2023-03-21T05:48:49;101404.56;;;8.42;100.00
59951;BME280;45812;53.540;9.774;2023-03-21T05:51:14;101396.47;;;8.23;100.00
59951;BME280;45812;53.540;9.774;2023-03-21T05:53:40;101393.63;;;8.36;100.00
59951;BME280;45812;53.540;9.774;2023-03-21T05:56:06;101391.56;;;8.39;100.00
59951;BME280;45812;53.540;9.774;2023-03-21T05:58:31;101392.25;;;8.41;100.00
59951;BME280;45812;53.540;9.774;2023-03-21T06:00:56;101389.19;;;8.46;100.00
59951;BME280;45812;53.540;9.774;2023-03-21T06:03:22;101393.25;;;8.50;100.00
59951;BME280;45812;53.540;9.774;2023-03-21T06:05:47;101389.06;;;8.47;100.00
59951;BME280;45812;53.540;9.774;2023-03-21T06:08:12;101386.13;;;8.41;100.00
59951;BME280;45812;53.540;9.774;2023-03-21T06:10:38;101396.47;;;8.44;100.00
59951;BME280;45812;53.540;9.774;2023-03-21T06:13:03;101386.41;;;8.47;100.00
59951;BME280;45812;53.540;9.774;2023-03-21T06:15:28;101391.16;;;8.54;100.00
59951;BME280;45812;53.540;9.774;2023-03-21T06:17:54;101395.41;;;8.66;100.00
59951;BME280;45812;53.540;9.774;2023-03-21T06:20:19;101392.59;;;8.58;100.00
59951;BME280;45812;53.540;9.774;2023-03-21T06:22:45;101383.38;;;8.62;100.00
59951;BME280;45812;53.540;9.774;2023-03-21T06:25:10;101390.09;;;8.66;100.00
59951;BME280;45812;53.540;9.774;2023-03-21T06:27:36;101395.41;;;8.66;100.00
59951;BME280;45812;53.540;9.774;2023-03-21T06:30:02;101389.28;;;8.75;100.00
59951;BME280;45812;53.540;9.774;2023-03-21T06:32:28;101380.59;;;8.73;100.00
59951;BME280;45812;53.540;9.774;2023-03-21T06:34:53;101379.53;;;8.75;100.00
59951;BME280;45812;53.540;9.774;2023-03-21T06:37:19;101379.25;;;8.88;100.00
59951;BME280;45812;53.540;9.774;2023-03-21T06:39:44;101381.06;;;8.88;100.00
59951;BME280;45812;53.540;9.774;2023-03-21T06:42:11;101381.63;;;8.91;100.00
59951;BME280;45812;53.540;9.774;2023-03-21T06:44:36;101381.06;;;8.88;100.00
59951;BME280;45812;53.540;9.774;2023-03-21T06:47:02;101381.34;;;9.04;100.00
59951;BME280;45812;53.540;9.774;2023-03-21T06:49:27;101388.50;;;8.94;100.00
59951;BME280;45812;53.540;9.774;2023-03-21T06:51:52;101389.31;;;9.04;100.00
59951;BME280;45812;53.540;9.774;2023-03-21T06:54:18;101393.22;;;9.09;100.00
59951;BME280;45812;53.540;9.774;2023-03-21T06:56:44;101383.47;;;9.00;100.00
59951;BME280;45812;53.540;9.774;2023-03-21T06:59:09;101398.41;;;9.01;100.00
59951;BME280;45812;53.540;9.774;2023-03-21T07:01:34;101394.22;;;8.99;100.00
59951;BME280;45812;53.540;9.774;2023-03-21T07:04:00;101395.75;;;9.01;100.00
59951;BME280;45812;53.540;9.774;2023-03-21T07:06:25;101395.34;;;8.96;100.00
59951;BME280;45812;53.540;9.774;2023-03-21T07:08:52;101399.09;;;8.84;100.00
59951;BME280;45812;53.540;9.774;2023-03-21T07:11:18;101390.41;;;8.92;100.00
59951;BME280;45812;53.540;9.774;2023-03-21T07:13:43;101398.38;;;8.82;100.00
59951;BME280;45812;53.540;9.774;2023-03-21T07:16:09;101394.50;;;8.96;100.00
59951;BME280;45812;53.540;9.774;2023-03-21T07:18:34;101390.44;;;9.01;100.00
59951;BME280;45812;53.540;9.774;2023-03-21T07:21:00;101388.78;;;9.00;100.00
59951;BME280;45812;53.540;9.774;2023-03-21T07:23:26;101397.47;;;9.12;100.00
59951;BME280;45812;53.540;9.774;2023-03-21T07:25:52;101389.84;;;8.88;100.00
59951;BME280;45812;53.540;9.774;2023-03-21T07:28:18;101400.94;;;9.13;100.00
59951;BME280;45812;53.540;9.774;2023-03-21T07:30:44;101394.06;;;9.10;100.00
59951;BME280;45812;53.540;9.774;2023-03-21T07:33:10;101397.84;;;8.98;100.00
59951;BME280;45812;53.540;9.774;2023-03-21T07:35:36;101397.00;;;9.07;100.00
59951;BME280;45812;53.540;9.774;2023-03-21T07:38:05;101390.19;;;9.14;100.00
59951;BME280;45812;53.540;9.774;2023-03-21T07:40:31;101392.97;;;9.03;100.00
59951;BME280;45812;53.540;9.774;2023-03-21T07:42:56;101393.94;;;9.21;100.00
59951;BME280;45812;53.540;9.774;2023-03-21T07:45:22;101401.63;;;9.24;100.00
59951;BME280;45812;53.540;9.774;2023-03-21T07:47:49;101391.28;;;9.21;100.00
59951;BME280;45812;53.540;9.774;2023-03-21T07:50:15;101399.28;;;9.31;100.00
59951;BME280;45812;53.540;9.774;2023-03-21T07:52:41;101391.72;;;9.17;100.00
59951;BME280;45812;53.540;9.774;2023-03-21T07:55:06;101391.00;;;9.24;100.00
59951;BME280;45812;53.540;9.774;2023-03-21T07:57:31;101379.97;;;9.38;100.00
59951;BME280;45812;53.540;9.774;2023-03-21T07:59:57;101389.19;;;9.44;100.00
59951;BME280;45812;53.540;9.774;2023-03-21T08:02:23;101387.81;;;9.50;100.00
59951;BME280;45812;53.540;9.774;2023-03-21T08:04:48;101382.88;;;9.45;100.00
59951;BME280;45812;53.540;9.774;2023-03-21T08:07:14;101385.00;;;9.51;100.00
59951;BME280;45812;53.540;9.774;2023-03-21T08:09:39;101384.03;;;9.52;100.00
59951;BME280;45812;53.540;9.774;2023-03-21T08:12:05;101382.31;;;9.70;100.00
59951;BME280;45812;53.540;9.774;2023-03-21T08:14:32;101385.38;;;9.66;100.00
59951;BME280;45812;53.540;9.774;2023-03-21T08:16:57;101378.38;;;9.65;100.00
59951;BME280;45812;53.540;9.774;2023-03-21T08:19:23;101376.56;;;9.65;100.00
59951;BME280;45812;53.540;9.774;2023-03-21T08:21:48;101388.47;;;9.61;100.00
59951;BME280;45812;53.540;9.774;2023-03-21T08:24:14;101392.13;;;9.70;100.00
59951;BME280;45812;53.540;9.774;2023-03-21T08:26:40;101383.16;;;9.61;100.00
59951;BME280;45812;53.540;9.774;2023-03-21T08:29:06;101387.94;;;9.58;100.00
59951;BME280;45812;53.540;9.774;2023-03-21T08:31:31;101385.38;;;9.76;100.00
59951;BME280;45812;53.540;9.774;2023-03-21T08:33:56;101381.19;;;9.73;100.00
59951;BME280;45812;53.540;9.774;2023-03-21T08:36:22;101381.31;;;9.81;100.00
59951;BME280;45812;53.540;9.774;2023-03-21T08:38:48;101378.94;;;9.88;100.00
59951;BME280;45812;53.540;9.774;2023-03-21T08:41:18;101378.19;;;10.05;100.00
59951;BME280;45812;53.540;9.774;2023-03-21T08:43:46;101384.19;;;9.97;100.00
59951;BME280;45812;53.540;9.774;2023-03-21T08:46:11;101380.53;;;10.08;100.00
59951;BME280;45812;53.540;9.774;2023-03-21T08:48:36;101378.53;;;10.20;100.00
59951;BME280;45812;53.540;9.774;2023-03-21T08:51:03;101375.22;;;10.08;100.00
59951;BME280;45812;53.540;9.774;2023-03-21T08:53:28;101384.75;;;10.01;100.00
59951;BME280;45812;53.540;9.774;2023-03-21T08:55:53;101381.91;;;10.12;100.00
59951;BME280;45812;53.540;9.774;2023-03-21T08:58:18;101385.13;;;10.25;100.00
59951;BME280;45812;53.540;9.774;2023-03-21T09:00:45;101376.69;;;10.30;100.00
59951;BME280;45812;53.540;9.774;2023-03-21T09:03:10;101384.69;;;10.20;100.00
59951;BME280;45812;53.540;9.774;2023-03-21T09:05:35;101383.94;;;10.38;100.00
59951;BME280;45812;53.540;9.774;2023-03-21T09:08:01;101382.13;;;10.38;100.00
59951;BME280;45812;53.540;9.774;2023-03-21T09:10:27;101377.94;;;10.36;100.00
59951;BME280;45812;53.540;9.774;2023-03-21T09:12:53;101378.38;;;10.31;100.00
59951;BME280;45812;53.540;9.774;2023-03-21T09:15:21;101368.72;;;10.30;100.00
59951;BME280;45812;53.540;9.774;2023-03-21T09:17:48;101373.50;;;10.26;100.00
59951;BME280;45812;53.540;9.774;2023-03-21T09:20:17;101372.44;;;10.47;100.00
59951;BME280;45812;53.540;9.774;2023-03-21T09:22:50;101372.50;;;10.55;100.00
59951;BME280;45812;53.540;9.774;2023-03-21T09:25:17;101369.13;;;10.63;100.00
59951;BME280;45812;53.540;9.774;2023-03-21T09:27:44;101372.69;;;10.71;100.00
59951;BME280;45812;53.540;9.774;2023-03-21T09:30:13;101374.22;;;10.74;100.00
59951;BME280;45812;53.540;9.774;2023-03-21T09:32:39;101372.25;;;10.76;100.00
59951;BME280;45812;53.540;9.774;2023-03-21T09:35:06;101373.16;;;10.67;100.00
59951;BME280;45812;53.540;9.774;2023-03-21T09:37:32;101369.88;;;10.73;100.00
59951;BME280;45812;53.540;9.774;2023-03-21T09:39:57;101364.22;;;10.58;100.00
59951;BME280;45812;53.540;9.774;2023-03-21T09:45:15;101372.81;;;10.52;100.00
59951;BME280;45812;53.540;9.774;2023-03-21T09:47:45;101375.28;;;10.63;100.00
59951;BME280;45812;53.540;9.774;2023-03-21T09:50:20;101377.25;;;10.61;100.00
59951;BME280;45812;53.540;9.774;2023-03-21T09:53:08;101379.91;;;10.61;100.00
59951;BME280;45812;53.540;9.774;2023-03-21T09:55:38;101372.69;;;10.71;100.00
59951;BME280;45812;53.540;9.774;2023-03-21T09:58:23;101370.72;;;10.73;100.00
59951;BME280;45812;53.540;9.774;2023-03-21T10:01:01;101371.56;;;10.74;100.00
59951;BME280;45812;53.540;9.774;2023-03-21T10:03:31;101361.28;;;10.61;100.00
59951;BME280;45812;53.540;9.774;2023-03-21T10:05:59;101366.31;;;10.64;100.00
59951;BME280;45812;53.540;9.774;2023-03-21T10:08:31;101361.91;;;10.73;100.00
59951;BME280;45812;53.540;9.774;2023-03-21T10:11:12;101371.25;;;10.77;100.00
59951;BME280;45812;53.540;9.774;2023-03-21T10:13:55;101371.56;;;10.74;100.00
59951;BME280;45812;53.540;9.774;2023-03-21T10:18:49;101363.34;;;10.40;100.00
59951;BME280;45812;53.540;9.774;2023-03-21T10:21:26;101366.22;;;10.28;100.00
59951;BME280;45812;53.540;9.774;2023-03-21T10:23:54;101358.72;;;10.42;100.00
59951;BME280;45812;53.540;9.774;2023-03-21T10:26:23;101355.91;;;10.43;100.00
59951;BME280;45812;53.540;9.774;2023-03-21T10:28:49;101353.78;;;10.47;100.00
59951;BME280;45812;53.540;9.774;2023-03-21T10:31:20;101349.22;;;10.57;100.00
59951;BME280;45812;53.540;9.774;2023-03-21T10:33:48;101347.25;;;10.59;100.00
59951;BME280;45812;53.540;9.774;2023-03-21T10:36:15;101352.34;;;10.52;100.00
59951;BME280;45812;53.540;9.774;2023-03-21T10:38:48;101350.53;;;10.53;100.00
59951;BME280;45812;53.540;9.774;2023-03-21T10:41:14;101344.72;;;10.40;100.00
59951;BME280;45812;53.540;9.774;2023-03-21T10:43:40;101349.78;;;10.33;100.00
59951;BME280;45812;53.540;9.774;2023-03-21T10:46:17;101350.41;;;10.27;100.00
59951;BME280;45812;53.540;9.774;2023-03-21T10:48:50;101345.59;;;10.30;100.00
59951;BME280;45812;53.540;9.774;2023-03-21T10:51:20;101344.91;;;10.19;100.00
59951;BME280;45812;53.540;9.774;2023-03-21T10:53:58;101342.84;;;10.22;100.00
59951;BME280;45812;53.540;9.774;2023-03-21T10:56:34;101341.16;;;10.21;100.00
59951;BME280;45812;53.540;9.774;2023-03-21T10:59:00;101339.91;;;10.16;100.00
59951;BME280;45812;53.540;9.774;2023-03-21T11:01:36;101337.94;;;10.27;100.00
59951;BME280;45812;53.540;9.774;2023-03-21T11:04:09;101334.59;;;10.25;100.00
59951;BME280;45812;53.540;9.774;2023-03-21T11:06:40;101331.63;;;10.28;100.00
59951;BME280;45812;53.540;9.774;2023-03-21T11:09:18;101332.59;;;10.27;100.00
59951;BME280;45812;53.540;9.774;2023-03-21T11:12:03;101326.91;;;10.40;100.00
59951;BME280;45812;53.540;9.774;2023-03-21T11:14:35;101321.81;;;10.29;100.00
59951;BME280;45812;53.540;9.774;2023-03-21T11:17:25;101319.03;;;10.48;100.00
59951;BME280;45812;53.540;9.774;2023-03-21T11:19:59;101321.94;;;10.55;100.00
59951;BME280;45812;53.540;9.774;2023-03-21T11:22:29;101323.16;;;10.43;100.00
59951;BME280;45812;53.540;9.774;2023-03-21T11:25:01;101320.91;;;10.38;100.00
59951;BME280;45812;53.540;9.774;2023-03-21T11:27:30;101328.06;;;10.38;100.00
59951;BME280;45812;53.540;9.774;2023-03-21T11:29:57;101327.19;;;10.47;100.00
59951;BME280;45812;53.540;9.774;2023-03-21T11:32:32;101324.28;;;10.58;100.00
59951;BME280;45812;53.540;9.774;2023-03-21T11:35:00;101317.25;;;10.39;100.00
59951;BME280;45812;53.540;9.774;2023-03-21T11:37:33;101324.63;;;10.18;100.00
59951;BME280;45812;53.540;9.774;2023-03-21T11:40:23;101319.53;;;9.97;100.00
59951;BME280;45812;53.540;9.774;2023-03-21T11:42:57;101322.03;;;10.08;100.00
59951;BME280;45812;53.540;9.774;2023-03-21T11:45:27;101301.03;;;10.42;100.00
59951;BME280;45812;53.540;9.774;2023-03-21T11:47:54;101303.81;;;10.58;100.00
59951;BME280;45812;53.540;9.774;2023-03-21T11:50:30;101299.94;;;10.53;100.00
59951;BME280;45812;53.540;9.774;2023-03-21T11:55:44;101306.75;;;10.65;100.00
59951;BME280;45812;53.540;9.774;2023-03-21T12:01:23;101291.66;;;10.56;100.00
59951;BME280;45812;53.540;9.774;2023-03-21T12:04:02;101284.75;;;10.63;100.00
59951;BME280;45812;53.540;9.774;2023-03-21T12:06:36;101284.47;;;10.66;100.00
59951;BME280;45812;53.540;9.774;2023-03-21T12:09:16;101291.91;;;10.63;100.00
59951;BME280;45812;53.540;9.774;2023-03-21T12:14:46;101277.06;;;10.78;100.00
59951;BME280;45812;53.540;9.774;2023-03-21T12:17:33;101265.72;;;10.58;100.00
59951;BME280;45812;53.540;9.774;2023-03-21T12:20:26;101278.03;;;10.59;100.00
59951;BME280;45812;53.540;9.774;2023-03-21T12:25:41;101266.78;;;10.29;100.00
59951;BME280;45812;53.540;9.774;2023-03-21T12:28:34;101261.59;;;10.18;100.00
59951;BME280;45812;53.540;9.774;2023-03-21T12:34:12;101256.22;;;10.10;100.00
59951;BME280;45812;53.540;9.774;2023-03-21T12:39:34;101258.09;;;10.27;100.00
59951;BME280;45812;53.540;9.774;2023-03-21T12:42:30;101250.59;;;10.23;100.00
59951;BME280;45812;53.540;9.774;2023-03-21T12:45:10;101253.53;;;10.38;100.00
59951;BME280;45812;53.540;9.774;2023-03-21T12:47:38;101251.50;;;10.31;100.00
59951;BME280;45812;53.540;9.774;2023-03-21T12:52:41;101247.47;;;10.45;100.00
59951;BME280;45812;53.540;9.774;2023-03-21T12:55:21;101251.41;;;10.59;100.00
59951;BME280;45812;53.540;9.774;2023-03-21T12:57:51;101234.41;;;10.52;100.00
59951;BME280;45812;53.540;9.774;2023-03-21T13:00:21;101246.97;;;10.42;100.00
59951;BME280;45812;53.540;9.774;2023-03-21T13:03:10;101241.22;;;10.37;100.00
59951;BME280;45812;53.540;9.774;2023-03-21T13:05:44;101234.47;;;10.24;100.00
59951;BME280;45812;53.540;9.774;2023-03-21T13:08:13;101235.69;;;10.30;100.00
59951;BME280;45812;53.540;9.774;2023-03-21T13:10:43;101223.38;;;10.47;100.00
59951;BME280;45812;53.540;9.774;2023-03-21T13:13:33;101222.69;;;10.45;100.00
59951;BME280;45812;53.540;9.774;2023-03-21T13:16:05;101218.44;;;10.52;100.00
59951;BME280;45812;53.540;9.774;2023-03-21T13:18:41;101220.03;;;10.45;100.00
59951;BME280;45812;53.540;9.774;2023-03-21T13:23:37;101212.94;;;10.53;100.00
59951;BME280;45812;53.540;9.774;2023-03-21T13:26:07;101215.44;;;10.55;100.00
59951;BME280;45812;53.540;9.774;2023-03-21T13:28:34;101209.97;;;10.74;100.00
59951;BME280;45812;53.540;9.774;2023-03-21T13:31:19;101204.31;;;10.77;100.00
59951;BME280;45812;53.540;9.774;2023-03-21T13:33:47;101198.47;;;10.91;100.00
59951;BME280;45812;53.540;9.774;2023-03-21T13:36:22;101200.31;;;10.73;100.00
59951;BME280;45812;53.540;9.774;2023-03-21T13:38:50;101199.56;;;10.63;100.00
59951;BME280;45812;53.540;9.774;2023-03-21T13:41:20;101197.28;;;10.68;100.00